createdAt,value
2019-03-08T00:02:21.319Z,8.00
2019-03-08T00:04:53.291Z,8.00
2019-03-08T00:07:24.932Z,7.90
2019-03-08T00:09:56.818Z,7.70
2019-03-08T00:12:28.575Z,7.60
2019-03-08T00:15:00.319Z,7.50
2019-03-08T00:17:31.692Z,7.30
2019-03-08T00:20:02.781Z,7.20
2019-03-08T00:22:34.099Z,7.20
2019-03-08T00:25:06.013Z,7.20
2019-03-08T00:27:37.596Z,7.10
2019-03-08T00:30:09.564Z,7.10
2019-03-08T00:32:41.093Z,7.10
2019-03-08T00:35:12.956Z,7.10
2019-03-08T00:37:43.972Z,7.10
2019-03-08T00:40:15.632Z,7.30
2019-03-08T00:42:47.346Z,7.30
2019-03-08T00:45:18.701Z,7.30
2019-03-08T00:47:50.838Z,7.30
2019-03-08T00:50:22.878Z,7.40
2019-03-08T00:52:54.517Z,7.40
2019-03-08T00:55:26.106Z,7.50
2019-03-08T00:57:57.751Z,7.50
2019-03-08T01:00:29.332Z,7.50
2019-03-08T01:03:01.161Z,7.50
2019-03-08T01:05:32.441Z,7.50
2019-03-08T01:08:04.359Z,7.40
2019-03-08T01:10:36.663Z,7.40
2019-03-08T01:13:08.752Z,7.40
2019-03-08T01:15:40.173Z,7.40
2019-03-08T01:18:11.799Z,7.40
2019-03-08T01:20:44.595Z,7.40
2019-03-08T01:23:15.916Z,7.40
2019-03-08T01:25:46.988Z,7.50
2019-03-08T01:28:18.444Z,7.50
2019-03-08T01:30:50.073Z,7.50
2019-03-08T01:33:21.978Z,7.50
2019-03-08T01:35:54.018Z,7.50
2019-03-08T01:38:25.635Z,7.50
2019-03-08T01:40:57.224Z,7.50
2019-03-08T01:43:28.396Z,7.50
2019-03-08T01:46:00.023Z,7.50
2019-03-08T01:48:31.668Z,7.50
2019-03-08T01:51:03.209Z,7.50
2019-03-08T01:53:34.743Z,7.60
2019-03-08T01:56:06.612Z,7.60
2019-03-08T01:58:38.460Z,7.60
2019-03-08T02:01:10.007Z,7.60
2019-03-08T02:03:41.604Z,7.60
2019-03-08T02:06:12.915Z,7.60
2019-03-08T02:08:46.206Z,7.60
2019-03-08T02:11:18.028Z,7.50
2019-03-08T02:13:49.343Z,7.60
2019-03-08T02:16:20.664Z,7.50
2019-03-08T02:18:53.024Z,7.50
2019-03-08T02:21:24.384Z,7.50
2019-03-08T02:23:56.293Z,7.50
2019-03-08T02:26:27.328Z,7.50
2019-03-08T02:28:59.182Z,7.60
2019-03-08T02:31:31.029Z,7.60
2019-03-08T02:34:02.747Z,7.60
2019-03-08T02:36:33.996Z,7.70
2019-03-08T02:39:08.106Z,7.70
2019-03-08T02:41:41.107Z,7.70
2019-03-08T02:44:13.547Z,7.70
2019-03-08T02:46:45.089Z,7.70
2019-03-08T02:49:16.939Z,7.70
2019-03-08T02:51:49.669Z,7.70
2019-03-08T02:54:20.933Z,7.70
2019-03-08T02:56:52.497Z,7.70
2019-03-08T02:59:24.421Z,7.70
2019-03-08T03:01:56.457Z,7.80
2019-03-08T03:04:27.752Z,7.80
2019-03-08T03:06:59.712Z,7.80
2019-03-08T03:09:32.182Z,7.80
2019-03-08T03:12:04.199Z,7.70
2019-03-08T03:14:35.508Z,7.70
2019-03-08T03:17:07.107Z,7.70
2019-03-08T03:19:39.711Z,7.70
2019-03-08T03:22:11.671Z,7.70
2019-03-08T03:24:43.628Z,7.60
2019-03-08T03:27:15.897Z,7.70
2019-03-08T03:29:47.675Z,7.70
2019-03-08T03:32:19.326Z,7.70
2019-03-08T03:34:51.455Z,7.70
2019-03-08T03:37:23.066Z,7.70
2019-03-08T03:39:54.686Z,7.70
2019-03-08T03:42:27.063Z,7.60
2019-03-08T03:44:58.621Z,7.60
2019-03-08T03:47:29.898Z,7.70
2019-03-08T03:50:01.688Z,7.70
2019-03-08T03:52:34.246Z,7.70
2019-03-08T03:55:05.952Z,7.70
2019-03-08T03:57:37.590Z,7.70
2019-03-08T04:00:11.820Z,7.70
2019-03-08T04:02:43.414Z,7.80
2019-03-08T04:05:15.384Z,7.70
2019-03-08T04:07:47.366Z,7.60
2019-03-08T04:10:19.345Z,7.60
2019-03-08T04:12:51.086Z,7.50
2019-03-08T04:15:23.012Z,7.50
2019-03-08T04:17:54.907Z,7.40
2019-03-08T04:20:26.825Z,7.40
2019-03-08T04:22:58.234Z,7.30
2019-03-08T04:25:29.219Z,7.30
2019-03-08T04:28:00.231Z,7.30
2019-03-08T04:30:31.948Z,7.30
2019-03-08T04:33:03.216Z,7.30
2019-03-08T04:35:35.237Z,7.30
2019-03-08T04:38:06.492Z,7.30
2019-03-08T04:40:38.539Z,7.20
2019-03-08T04:43:10.759Z,7.20
2019-03-08T04:45:42.265Z,7.20
2019-03-08T04:48:15.359Z,7.20
2019-03-08T04:50:46.855Z,7.20
2019-03-08T04:53:18.707Z,7.20
2019-03-08T04:55:50.240Z,7.10
2019-03-08T04:58:22.387Z,7.10
2019-03-08T05:00:56.411Z,7.00
2019-03-08T05:03:27.677Z,7.00
2019-03-08T05:06:00.731Z,7.00
2019-03-08T05:08:32.415Z,7.00
2019-03-08T05:11:03.929Z,7.00
2019-03-08T05:13:34.919Z,7.00
2019-03-08T05:16:07.488Z,7.00
2019-03-08T05:18:38.805Z,7.00
2019-03-08T05:21:10.210Z,7.00
2019-03-08T05:23:41.841Z,7.10
2019-03-08T05:26:13.701Z,7.00
2019-03-08T05:28:45.255Z,7.00
2019-03-08T05:31:17.112Z,7.10
2019-03-08T05:33:48.443Z,7.10
2019-03-08T05:36:19.804Z,7.10
2019-03-08T05:38:51.356Z,7.10
2019-03-08T05:41:23.133Z,7.10
2019-03-08T05:43:54.534Z,7.10
2019-03-08T05:46:26.378Z,7.10
2019-03-08T05:48:57.961Z,7.10
2019-03-08T05:51:29.437Z,7.00
2019-03-08T05:54:00.418Z,6.90
2019-03-08T05:56:32.019Z,6.90
2019-03-08T05:59:03.578Z,6.80
2019-03-08T06:01:35.213Z,6.70
2019-03-08T06:04:06.554Z,6.60
2019-03-08T06:06:38.103Z,6.60
2019-03-08T06:09:10.154Z,6.50
2019-03-08T06:11:41.907Z,6.60
2019-03-08T06:14:13.214Z,6.50
2019-03-08T06:16:45.323Z,6.50
2019-03-08T06:19:17.042Z,6.50
2019-03-08T06:21:48.834Z,6.60
2019-03-08T06:24:20.068Z,6.70
2019-03-08T06:26:52.196Z,6.80
2019-03-08T06:29:23.482Z,6.80
2019-03-08T06:31:54.765Z,6.90
2019-03-08T06:34:26.291Z,6.90
2019-03-08T06:36:57.840Z,7.10
2019-03-08T06:39:29.446Z,7.20
2019-03-08T06:42:01.519Z,7.20
2019-03-08T06:44:34.381Z,7.20
2019-03-08T06:47:06.602Z,7.30
2019-03-08T06:49:38.469Z,7.40
2019-03-08T06:52:10.040Z,7.50
2019-03-08T06:54:42.004Z,7.60
2019-03-08T06:57:13.474Z,7.60
2019-03-08T06:59:52.706Z,7.60
2019-03-08T07:02:24.195Z,7.70
2019-03-08T07:04:55.812Z,7.70
2019-03-08T07:07:27.643Z,7.70
2019-03-08T07:09:59.631Z,7.80
2019-03-08T07:12:32.222Z,7.90
2019-03-08T07:15:03.894Z,7.90
2019-03-08T07:17:37.062Z,8.10
2019-03-08T07:20:17.600Z,8.20
2019-03-08T07:23:04.507Z,8.30
2019-03-08T07:25:58.095Z,8.30
2019-03-08T07:28:54.944Z,8.40
2019-03-08T07:31:44.969Z,8.40
2019-03-08T07:34:35.249Z,8.50
2019-03-08T07:37:16.826Z,8.80
2019-03-08T07:40:04.158Z,8.90
2019-03-08T07:42:53.352Z,8.80
2019-03-08T07:45:46.720Z,8.80
2019-03-08T07:48:27.490Z,8.80
2019-03-08T07:51:07.602Z,8.70
2019-03-08T07:53:45.443Z,8.70
2019-03-08T07:56:25.144Z,8.80
2019-03-08T07:59:07.481Z,8.80
2019-03-08T08:01:48.016Z,8.80
2019-03-08T08:04:27.020Z,8.80
2019-03-08T08:07:11.064Z,8.70
2019-03-08T08:10:00.559Z,8.60
2019-03-08T08:12:42.555Z,8.60
2019-03-08T08:15:20.777Z,8.50
2019-03-08T08:18:09.896Z,8.50
2019-03-08T08:20:58.798Z,8.60
2019-03-08T08:23:39.965Z,8.70
2019-03-08T08:26:20.847Z,8.90
2019-03-08T08:29:34.662Z,9.00
2019-03-08T08:32:24.877Z,9.20
2019-03-08T08:35:09.638Z,9.70
2019-03-08T08:37:55.802Z,9.90
2019-03-08T08:40:37.600Z,10.10
2019-03-08T08:43:15.690Z,10.50
2019-03-08T08:45:57.776Z,10.80
2019-03-08T08:48:52.831Z,11.10
2019-03-08T08:51:34.834Z,11.60
2019-03-08T08:54:14.472Z,12.10
2019-03-08T08:57:04.258Z,12.40
2019-03-08T09:00:00.661Z,12.50
2019-03-08T09:02:45.626Z,12.30
2019-03-08T09:05:38.545Z,12.50
2019-03-08T09:08:19.677Z,12.90
2019-03-08T09:10:59.831Z,13.10
2019-03-08T09:13:50.409Z,13.20
2019-03-08T09:16:43.482Z,13.00
2019-03-08T09:19:32.981Z,12.50
2019-03-08T09:22:32.259Z,12.30
2019-03-08T09:25:22.617Z,12.60
2019-03-08T09:28:01.078Z,13.30
2019-03-08T09:30:58.100Z,13.60
2019-03-08T09:33:38.173Z,13.20
2019-03-08T09:36:27.314Z,12.50
2019-03-08T09:39:16.913Z,11.90
2019-03-08T09:41:59.021Z,11.50
2019-03-08T09:44:48.840Z,11.00
2019-03-08T09:47:40.324Z,10.60
2019-03-08T09:50:20.361Z,10.10
2019-03-08T09:52:57.416Z,9.50
2019-03-08T09:55:47.196Z,9.20
2019-03-08T09:58:26.349Z,9.10
2019-03-08T10:01:22.726Z,9.10
2019-03-08T10:04:27.836Z,9.00
2019-03-08T10:07:24.577Z,9.10
2019-03-08T10:10:21.057Z,9.20
2019-03-08T10:13:03.178Z,9.10
2019-03-08T10:15:49.579Z,9.10
2019-03-08T10:18:34.535Z,9.20
2019-03-08T10:21:18.351Z,9.40
2019-03-08T10:24:05.079Z,9.60
2019-03-08T10:26:46.066Z,9.70
2019-03-08T10:29:36.339Z,9.90
2019-03-08T10:32:37.071Z,9.90
2019-03-08T10:35:23.956Z,9.90
2019-03-08T10:38:22.684Z,9.90
2019-03-08T10:41:05.518Z,9.80
2019-03-08T10:43:55.440Z,9.40
2019-03-08T10:46:44.705Z,9.10
2019-03-08T10:49:22.135Z,8.90
2019-03-08T10:52:03.304Z,8.80
2019-03-08T10:54:44.393Z,8.90
2019-03-08T10:57:27.602Z,9.20
2019-03-08T11:00:08.902Z,9.40
2019-03-08T11:02:48.368Z,9.60
2019-03-08T11:05:26.840Z,9.60
2019-03-08T11:08:05.448Z,9.60
2019-03-08T11:10:55.762Z,9.60
2019-03-08T11:13:43.280Z,9.50
2019-03-08T11:16:38.830Z,9.40
2019-03-08T11:19:32.855Z,9.40
2019-03-08T11:22:42.202Z,9.20
2019-03-08T11:25:23.909Z,9.30
2019-03-08T11:28:07.152Z,9.30
2019-03-08T11:31:00.794Z,9.40
2019-03-08T11:34:01.221Z,9.50
2019-03-08T11:36:40.271Z,9.70
2019-03-08T11:39:31.070Z,9.90
2019-03-08T11:42:08.485Z,10.00
2019-03-08T11:44:58.130Z,10.20
2019-03-08T11:47:49.349Z,10.00
2019-03-08T11:50:45.819Z,9.80
2019-03-08T11:53:29.223Z,9.60
2019-03-08T11:56:19.397Z,9.50
2019-03-08T11:59:02.603Z,9.50
2019-03-08T12:01:43.491Z,9.60
2019-03-08T12:04:22.540Z,9.80
2019-03-08T12:07:00.965Z,9.90
2019-03-08T12:10:06.353Z,10.00
2019-03-08T12:12:56.379Z,9.90
2019-03-08T12:15:46.591Z,9.90
2019-03-08T12:18:36.726Z,9.80
2019-03-08T12:21:33.202Z,9.80
2019-03-08T12:24:33.315Z,9.90
2019-03-08T12:27:22.283Z,9.90
2019-03-08T12:30:14.133Z,9.90
2019-03-08T12:33:10.048Z,10.10
2019-03-08T12:35:54.669Z,10.30
2019-03-08T12:38:41.057Z,10.50
2019-03-08T12:41:33.044Z,10.80
2019-03-08T12:44:35.816Z,10.80
2019-03-08T12:47:18.612Z,10.80
2019-03-08T12:50:12.226Z,10.70
2019-03-08T12:52:54.248Z,10.50
2019-03-08T12:55:33.206Z,10.20
2019-03-08T12:58:29.677Z,10.00
2019-03-08T13:01:24.314Z,9.80
2019-03-08T13:04:13.496Z,9.90
2019-03-08T13:07:11.864Z,10.00
2019-03-08T13:09:49.854Z,10.20
2019-03-08T13:12:21.601Z,10.30
2019-03-08T13:14:53.556Z,10.30
2019-03-08T13:17:24.938Z,10.40
2019-03-08T13:19:56.590Z,10.60
2019-03-08T13:22:29.318Z,10.70
2019-03-08T13:25:01.300Z,10.80
2019-03-08T13:27:32.322Z,10.90
2019-03-08T13:30:03.653Z,11.10
2019-03-08T13:32:35.530Z,11.00
2019-03-08T13:35:07.442Z,10.80
2019-03-08T13:37:52.428Z,10.60
2019-03-08T13:40:24.517Z,10.00
2019-03-08T13:42:56.433Z,9.20
2019-03-08T13:45:29.264Z,8.70
2019-03-08T13:48:00.918Z,8.50
2019-03-08T13:50:32.579Z,8.30
2019-03-08T13:53:03.912Z,8.00
2019-03-08T13:55:35.792Z,7.80
2019-03-08T13:58:07.108Z,7.60
2019-03-08T14:00:38.376Z,7.60
2019-03-08T14:03:10.603Z,7.60
2019-03-08T14:05:42.793Z,7.50
2019-03-08T14:08:13.834Z,7.50
2019-03-08T14:10:45.432Z,7.50
2019-03-08T14:13:17.215Z,7.60
2019-03-08T14:15:48.542Z,7.70
2019-03-08T14:18:20.146Z,7.70
2019-03-08T14:20:51.430Z,7.70
2019-03-08T14:23:23.324Z,7.80
2019-03-08T14:25:55.325Z,7.80
2019-03-08T14:28:26.908Z,7.80
2019-03-08T14:31:12.584Z,7.70
2019-03-08T14:33:45.003Z,7.60
2019-03-08T14:36:16.615Z,7.50
2019-03-08T14:38:48.480Z,7.40
2019-03-08T14:41:30.705Z,7.50
2019-03-08T14:44:08.196Z,7.50
2019-03-08T14:46:56.320Z,7.60
2019-03-08T14:49:26.545Z,7.60
2019-03-08T14:51:57.856Z,7.60
2019-03-08T14:54:29.236Z,7.60
2019-03-08T14:57:00.499Z,7.70
2019-03-08T14:59:32.574Z,7.70
2019-03-08T15:02:03.906Z,7.70
2019-03-08T15:04:36.394Z,7.80
2019-03-08T15:07:07.737Z,7.80
2019-03-08T15:09:39.038Z,7.90
2019-03-08T15:12:16.557Z,7.90
2019-03-08T15:14:44.640Z,7.90
2019-03-08T15:17:16.807Z,7.90
2019-03-08T15:19:48.883Z,7.90
2019-03-08T15:22:20.831Z,7.90
2019-03-08T15:24:52.467Z,7.90
2019-03-08T15:27:25.260Z,7.90
2019-03-08T15:29:57.258Z,7.90
2019-03-08T15:32:29.188Z,7.90
2019-03-08T15:35:00.858Z,7.90
2019-03-08T15:37:33.596Z,8.00
2019-03-08T15:40:06.695Z,8.00
2019-03-08T15:42:38.219Z,8.00
2019-03-08T15:45:10.836Z,8.00
2019-03-08T15:47:43.215Z,8.00
2019-03-08T15:50:22.118Z,8.00
2019-03-08T15:52:53.994Z,8.00
2019-03-08T15:55:25.840Z,7.90
2019-03-08T15:57:57.510Z,7.80
2019-03-08T16:00:29.676Z,7.90
2019-03-08T16:03:01.797Z,7.90
2019-03-08T16:05:33.172Z,7.80
2019-03-08T16:08:04.231Z,7.70
2019-03-08T16:10:35.796Z,7.70
2019-03-08T16:13:07.205Z,7.70
2019-03-08T16:15:39.024Z,7.80
2019-03-08T16:18:10.957Z,7.90
2019-03-08T16:20:43.060Z,7.80
2019-03-08T16:23:14.902Z,7.80
2019-03-08T16:25:48.578Z,7.70
2019-03-08T16:28:19.969Z,7.60
2019-03-08T16:30:55.676Z,7.50
2019-03-08T16:33:37.908Z,7.40
2019-03-08T16:36:18.752Z,7.50
2019-03-08T16:39:07.480Z,7.40
2019-03-08T16:42:05.421Z,7.40
2019-03-08T16:44:59.767Z,7.40
2019-03-08T16:47:56.539Z,7.50
2019-03-08T16:50:39.469Z,7.60
2019-03-08T16:53:17.854Z,7.70
2019-03-08T16:56:00.042Z,7.70
2019-03-08T16:58:49.324Z,7.80
2019-03-08T17:01:42.603Z,7.70
2019-03-08T17:04:22.646Z,7.70
2019-03-08T17:07:11.653Z,7.50
2019-03-08T17:10:02.205Z,7.30
2019-03-08T17:12:51.847Z,7.10
2019-03-08T17:15:50.805Z,6.90
2019-03-08T17:18:33.418Z,6.90
2019-03-08T17:21:24.071Z,6.90
2019-03-08T17:24:13.685Z,6.90
2019-03-08T17:26:57.894Z,6.90
2019-03-08T17:29:41.450Z,7.00
2019-03-08T17:32:18.433Z,7.10
2019-03-08T17:35:08.041Z,7.20
2019-03-08T17:37:47.949Z,7.00
2019-03-08T17:40:29.950Z,6.80
2019-03-08T17:43:18.807Z,6.70
2019-03-08T17:46:10.429Z,6.60
2019-03-08T17:49:12.890Z,6.50
2019-03-08T17:52:05.620Z,6.50
2019-03-08T17:54:54.258Z,6.40
2019-03-08T17:57:48.497Z,6.50
2019-03-08T18:00:37.622Z,6.50
2019-03-08T18:03:13.836Z,6.40
2019-03-08T18:05:57.459Z,6.40
2019-03-08T18:08:54.371Z,6.30
2019-03-08T18:11:40.469Z,6.30
2019-03-08T18:14:31.578Z,6.10
2019-03-08T18:17:20.859Z,6.00
2019-03-08T18:20:04.498Z,5.90
2019-03-08T18:22:45.557Z,5.90
2019-03-08T18:25:31.385Z,5.80
2019-03-08T18:28:18.178Z,5.80
2019-03-08T18:30:59.026Z,5.80
2019-03-08T18:33:43.273Z,5.80
2019-03-08T18:36:29.504Z,5.70
2019-03-08T18:39:16.012Z,5.70
2019-03-08T18:42:05.653Z,5.70
2019-03-08T18:44:53.474Z,5.70
2019-03-08T18:47:47.086Z,5.70
2019-03-08T18:50:44.716Z,5.60
2019-03-08T18:53:36.083Z,5.60
2019-03-08T18:56:24.991Z,5.60
2019-03-08T18:59:02.950Z,5.70
2019-03-08T19:01:47.763Z,5.80
2019-03-08T19:04:36.643Z,5.80
2019-03-08T19:07:27.635Z,5.80
2019-03-08T19:10:11.714Z,5.80
2019-03-08T19:13:11.188Z,5.80
2019-03-08T19:16:04.977Z,5.70
2019-03-08T19:19:05.261Z,5.60
2019-03-08T19:21:51.719Z,5.60
2019-03-08T19:24:42.330Z,5.60
2019-03-08T19:27:40.863Z,5.60
2019-03-08T19:30:37.430Z,5.60
2019-03-08T19:33:15.332Z,5.60
2019-03-08T19:35:55.579Z,5.50
2019-03-08T19:38:43.011Z,5.50
2019-03-08T19:41:34.638Z,5.50
2019-03-08T19:44:20.824Z,5.50
2019-03-08T19:47:20.923Z,5.50
2019-03-08T19:50:18.494Z,5.50
2019-03-08T19:53:00.611Z,5.50
2019-03-08T19:55:54.458Z,5.50
2019-03-08T19:58:37.583Z,5.50
2019-03-08T20:01:43.543Z,5.50
2019-03-08T20:04:46.126Z,5.50
2019-03-08T20:07:37.574Z,5.40
2019-03-08T20:10:27.135Z,5.40
2019-03-08T20:13:16.071Z,5.50
2019-03-08T20:15:57.832Z,5.50
2019-03-08T20:18:38.331Z,5.50
2019-03-08T20:21:27.749Z,5.60
2019-03-08T20:24:24.472Z,5.70
2019-03-08T20:27:12.412Z,5.70
2019-03-08T20:30:18.404Z,5.70
2019-03-08T20:33:08.421Z,5.80
2019-03-08T20:35:51.256Z,5.90
2019-03-08T20:38:44.840Z,5.90
2019-03-08T20:41:26.591Z,5.90
2019-03-08T20:44:06.261Z,5.90
2019-03-08T20:46:50.802Z,6.00
2019-03-08T20:49:22.500Z,6.00
2019-03-08T20:51:53.804Z,6.10
2019-03-08T20:54:24.866Z,6.10
2019-03-08T20:56:56.533Z,6.10
2019-03-08T20:59:27.535Z,6.10
2019-03-08T21:01:59.145Z,6.10
2019-03-08T21:04:30.439Z,6.10
2019-03-08T21:07:02.068Z,6.10
2019-03-08T21:09:33.747Z,6.10
2019-03-08T21:12:05.083Z,6.00
2019-03-08T21:14:36.848Z,6.00
2019-03-08T21:17:08.504Z,6.00
2019-03-08T21:19:40.655Z,6.00
2019-03-08T21:22:12.333Z,5.90
2019-03-08T21:24:44.179Z,5.90
2019-03-08T21:27:15.816Z,5.80
2019-03-08T21:29:46.815Z,5.80
2019-03-08T21:32:18.710Z,5.80
2019-03-08T21:34:50.291Z,5.70
2019-03-08T21:37:24.338Z,5.60
2019-03-08T21:39:56.343Z,5.60
2019-03-08T21:42:28.018Z,5.50
2019-03-08T21:44:59.597Z,5.50
2019-03-08T21:47:31.176Z,5.60
2019-03-08T21:50:05.267Z,5.70
2019-03-08T21:52:37.304Z,5.70
2019-03-08T21:55:09.288Z,5.80
2019-03-08T21:57:40.386Z,5.90
2019-03-08T22:00:16.877Z,5.90
2019-03-08T22:02:49.092Z,6.00
2019-03-08T22:05:24.090Z,6.10
2019-03-08T22:07:56.231Z,6.10
2019-03-08T22:10:41.141Z,6.20
2019-03-08T22:13:12.768Z,6.20
2019-03-08T22:15:44.059Z,6.30
2019-03-08T22:18:15.291Z,6.30
2019-03-08T22:20:46.829Z,6.30
2019-03-08T22:23:18.706Z,6.30
2019-03-08T22:25:49.947Z,6.30
2019-03-08T22:28:21.596Z,6.30
2019-03-08T22:30:52.729Z,6.30
2019-03-08T22:33:24.589Z,6.30
2019-03-08T22:35:56.482Z,6.40
2019-03-08T22:38:28.099Z,6.30
2019-03-08T22:40:59.556Z,6.30
2019-03-08T22:43:31.150Z,6.30
2019-03-08T22:46:02.666Z,6.40
2019-03-08T22:48:35.040Z,6.30
2019-03-08T22:51:06.089Z,6.30
2019-03-08T22:53:37.430Z,6.30
2019-03-08T22:56:09.287Z,6.30
2019-03-08T22:58:41.257Z,6.30
2019-03-08T23:01:18.280Z,6.20
2019-03-08T23:03:52.040Z,6.20
2019-03-08T23:06:24.016Z,6.20
2019-03-08T23:08:55.616Z,6.20
2019-03-08T23:11:28.302Z,6.10
2019-03-08T23:14:00.498Z,6.10
2019-03-08T23:16:33.501Z,6.00
2019-03-08T23:19:05.506Z,6.00
2019-03-08T23:21:37.086Z,6.00
2019-03-08T23:24:08.961Z,6.10
2019-03-08T23:26:50.039Z,6.10
2019-03-08T23:29:29.178Z,6.10
2019-03-08T23:32:10.872Z,6.10
2019-03-08T23:34:42.497Z,6.10
2019-03-08T23:37:13.736Z,6.10
2019-03-08T23:39:45.056Z,6.00
2019-03-08T23:42:16.924Z,6.00
2019-03-08T23:44:48.789Z,6.00
2019-03-08T23:47:22.013Z,5.90
2019-03-08T23:49:54.355Z,5.80
2019-03-08T23:52:25.653Z,5.70
2019-03-08T23:54:56.639Z,5.70
2019-03-08T23:57:28.443Z,5.60
